Elorrio, Spain
Current Conditions -  °F | °C
As of 10:30 PM on Wednesday 26 Nov 2014 (Local Time) from LEVT Reporting Station
Broken Clouds Broken Clouds  
Wind Chill: 43°   Ceiling: 1200
Heat Index: 43°   Visibility: 4mi
Dew Point: 43°   Wind: 0mph
Humidity: 100%   Direction: NA
Pressure: 29.8"   Gusts: NA
Location:  43.13°N, 2.54°W
Report Text: LEVT 262130Z 00000KT 6000 FEW005 BKN012 06/06 Q1009
Loading
Personal Weather Stations






























Interactive Weather Map New forecast layout! Learn more

10-Day Weather Forecast

Advertisements
Track Severe Weather on mobile